createdAt,value
2023-02-05T00:00:06.850Z,42.2
2023-02-05T00:05:29.632Z,42.2
2023-02-05T00:11:08.127Z,42.2
2023-02-05T00:16:30.576Z,42.1
2023-02-05T00:22:08.321Z,42.1
2023-02-05T00:27:47.347Z,42.1
2023-02-05T00:33:25.744Z,42.1
2023-02-05T00:39:04.080Z,42.1
2023-02-05T00:44:42.197Z,42
2023-02-05T00:50:20.246Z,42
2023-02-05T00:55:59.255Z,42
2023-02-05T01:01:38.264Z,41.9
2023-02-05T01:07:15.449Z,41.9
2023-02-05T01:12:53.338Z,41.9
2023-02-05T01:18:31.472Z,41.9
2023-02-05T01:24:09.778Z,41.9
2023-02-05T01:29:48.167Z,41.8
2023-02-05T01:35:27.150Z,41.8
2023-02-05T01:41:05.065Z,41.8
2023-02-05T01:46:27.486Z,41.8
2023-02-05T01:52:20.147Z,41.8
2023-02-05T01:57:57.197Z,41.7
2023-02-05T02:03:34.137Z,41.7
2023-02-05T02:09:12.824Z,42.3
2023-02-05T02:14:50.564Z,43.4
2023-02-05T02:20:28.067Z,44.4
2023-02-05T02:26:06.818Z,45.4
2023-02-05T02:31:30.032Z,46.4
2023-02-05T02:37:07.929Z,47.5
2023-02-05T02:42:30.478Z,48.6
2023-02-05T02:48:09.162Z,49.6
2023-02-05T02:53:15.743Z,50.7
2023-02-05T02:58:38.795Z,51.6
2023-02-05T03:04:06.251Z,52.6
2023-02-05T03:09:28.875Z,53.6
2023-02-05T03:14:20.908Z,54.6
2023-02-05T03:19:58.841Z,55.4
2023-02-05T03:25:21.181Z,56.5
2023-02-05T03:30:59.864Z,57.5
2023-02-05T03:36:22.383Z,57.8
2023-02-05T03:42:00.548Z,57.9
2023-02-05T03:47:38.762Z,57.9
2023-02-05T03:53:07.091Z,57.9
2023-02-05T03:58:43.915Z,57.8
2023-02-05T04:04:22.206Z,57.8
2023-02-05T04:25:54.044Z,57.7
2023-02-05T04:31:32.476Z,57.6
2023-02-05T04:37:11.419Z,57.6
2023-02-05T04:42:48.668Z,57.6
2023-02-05T04:48:11.229Z,57.5
2023-02-05T04:53:48.496Z,57.4
2023-02-05T04:59:26.456Z,57.4
2023-02-05T05:04:48.929Z,57.4
2023-02-05T05:10:26.934Z,57.4
2023-02-05T05:15:49.521Z,57.3
2023-02-05T05:21:28.048Z,57.3
2023-02-05T05:27:05.793Z,57.3
2023-02-05T05:32:43.822Z,57.2
2023-02-05T05:38:21.691Z,57.1
2023-02-05T05:43:59.848Z,57.1
2023-02-05T05:49:37.691Z,57.1
2023-02-05T05:55:15.037Z,57
2023-02-05T06:00:53.875Z,57
2023-02-05T06:06:31.181Z,56.9
2023-02-05T06:12:11.543Z,56.9
2023-02-05T06:17:34.874Z,56.9
2023-02-05T06:23:12.616Z,56.8
2023-02-05T06:28:50.612Z,56.8
2023-02-05T06:34:29.194Z,56.8
2023-02-05T06:40:21.393Z,56.7
2023-02-05T06:45:59.941Z,56.6
2023-02-05T06:51:38.670Z,56.6
2023-02-05T06:57:00.816Z,56.6
2023-02-05T07:02:39.112Z,56.6
2023-02-05T07:08:17.553Z,56.5
2023-02-05T07:13:40.654Z,56.4
2023-02-05T07:19:18.581Z,56.4
2023-02-05T07:24:41.144Z,56.4
2023-02-05T07:30:19.258Z,56.3
2023-02-05T07:35:57.586Z,56.3
2023-02-05T07:41:20.773Z,56.3
2023-02-05T07:46:43.813Z,56.2
2023-02-05T07:52:22.444Z,56.1
2023-02-05T08:03:52.385Z,56.1
2023-02-05T08:09:31.279Z,56
2023-02-05T08:15:16.359Z,56
2023-02-05T08:20:54.948Z,55.9
2023-02-05T08:26:32.904Z,55.9
2023-02-05T08:32:11.363Z,55.9
2023-02-05T08:37:18.182Z,55.8
2023-02-05T08:42:56.294Z,55.8
2023-02-05T08:48:45.958Z,55.8
2023-02-05T08:54:25.555Z,55.7
2023-02-05T09:00:04.594Z,55.7
2023-02-05T09:05:54.847Z,55.6
2023-02-05T09:24:14.529Z,55.4
2023-02-05T09:29:53.296Z,55.4
2023-02-05T09:35:31.600Z,55.4
2023-02-05T09:42:14.121Z,55.3
2023-02-05T09:47:53.540Z,55.3
2023-02-05T09:53:32.525Z,55.3
2023-02-05T09:59:12.585Z,55.2
2023-02-05T10:04:57.170Z,55.1
2023-02-05T10:10:18.411Z,55.1
2023-02-05T10:15:56.848Z,55.1
2023-02-05T10:21:35.075Z,55
2023-02-05T10:27:13.455Z,55
2023-02-05T10:32:52.443Z,54.9
2023-02-05T10:38:31.040Z,54.9
2023-02-05T10:43:52.477Z,54.9
2023-02-05T10:49:34.519Z,54.8
2023-02-05T10:55:12.724Z,54.8
2023-02-05T11:00:50.514Z,54.8
2023-02-05T11:06:28.797Z,54.7
2023-02-05T11:11:52.800Z,54.6
2023-02-05T11:17:31.156Z,54.6
2023-02-05T11:23:09.466Z,54.6
2023-02-05T11:28:48.219Z,54.5
2023-02-05T11:34:50.830Z,54.4
2023-02-05T11:40:14.052Z,54.4
2023-02-05T11:45:53.103Z,54.4
2023-02-05T11:51:15.313Z,54.4
2023-02-05T11:56:56.269Z,54.3
2023-02-05T12:02:43.541Z,54.3
2023-02-05T12:08:20.638Z,54.3
2023-02-05T12:14:01.957Z,54.2
2023-02-05T12:19:40.291Z,54.1
2023-02-05T12:25:17.196Z,54.1
2023-02-05T12:30:40.483Z,54.1
2023-02-05T12:36:19.537Z,54
2023-02-05T12:41:55.355Z,54
2023-02-05T12:47:34.301Z,53.9
2023-02-05T12:53:12.034Z,53.9
2023-02-05T12:58:49.447Z,53.8
2023-02-05T13:04:28.127Z,53.8
2023-02-05T13:10:06.740Z,53.7
2023-02-05T13:15:45.121Z,53.7
2023-02-05T13:21:23.627Z,53.6
2023-02-05T13:27:08.731Z,53.6
2023-02-05T13:32:51.417Z,53.5
2023-02-05T13:38:29.938Z,53.5
2023-02-05T13:44:11.665Z,53.4
2023-02-05T13:49:51.119Z,53.4
2023-02-05T13:55:29.607Z,53.4
2023-02-05T14:00:52.663Z,53.3
2023-02-05T14:06:30.907Z,53.3
2023-02-05T14:12:20.792Z,53.3
2023-02-05T14:17:59.476Z,53.2
2023-02-05T14:23:37.499Z,53.1
2023-02-05T14:29:03.224Z,53.1
2023-02-05T14:34:38.933Z,53.1
2023-02-05T14:40:16.699Z,53
2023-02-05T14:45:45.522Z,53
2023-02-05T14:51:23.996Z,52.9
2023-02-05T14:56:46.284Z,52.9
2023-02-05T15:02:27.383Z,52.8
2023-02-05T15:07:34.784Z,52.8
2023-02-05T15:13:12.928Z,52.8
2023-02-05T15:18:51.372Z,52.8
2023-02-05T15:24:20.088Z,52.7
2023-02-05T15:29:58.575Z,52.6
2023-02-05T15:35:21.447Z,52.6
2023-02-05T15:40:59.678Z,52.5
2023-02-05T15:46:37.514Z,52.5
2023-02-05T15:52:15.185Z,52.4
2023-02-05T16:03:16.441Z,52.3
2023-02-05T16:08:39.080Z,52.3
2023-02-05T16:14:17.883Z,52.2
2023-02-05T16:19:40.637Z,52.1
2023-02-05T16:25:18.850Z,52.1
2023-02-05T16:30:54.706Z,52.1
2023-02-05T16:36:33.188Z,52
2023-02-05T16:41:56.378Z,52
2023-02-05T16:47:34.461Z,51.9
2023-02-05T16:53:12.610Z,51.8
2023-02-05T16:58:35.290Z,51.8
2023-02-05T17:04:14.961Z,51.8
2023-02-05T17:09:37.311Z,51.7
2023-02-05T17:15:00.670Z,51.6
2023-02-05T17:20:39.378Z,51.6
2023-02-05T17:26:01.357Z,51.6
2023-02-05T17:31:40.209Z,51.5
2023-02-05T17:37:21.495Z,51.4
2023-02-05T17:43:02.485Z,51.4
2023-02-05T17:48:40.775Z,51.3
2023-02-05T17:54:03.835Z,51.3
2023-02-05T17:59:10.602Z,51.3
2023-02-05T18:04:49.314Z,51.2
2023-02-05T18:10:28.085Z,51.1
2023-02-05T18:15:50.562Z,51.1
2023-02-05T18:21:13.571Z,51.1
2023-02-05T18:26:52.482Z,51
2023-02-05T18:32:18.797Z,51
2023-02-05T18:37:43.116Z,50.9
2023-02-05T18:43:21.390Z,50.9
2023-02-05T18:48:44.111Z,50.9
2023-02-05T18:54:09.511Z,50.8
2023-02-05T18:59:47.708Z,50.8
2023-02-05T19:05:10.602Z,50.7
2023-02-05T19:10:48.588Z,50.6
2023-02-05T19:16:28.633Z,50.6
2023-02-05T19:22:08.461Z,50.6
2023-02-05T19:27:45.891Z,50.5
2023-02-05T19:33:25.526Z,50.5
2023-02-05T19:39:03.347Z,50.4
2023-02-05T19:44:41.281Z,50.4
2023-02-05T19:50:04.704Z,50.4
2023-02-05T19:55:44.031Z,50.3
2023-02-05T20:01:07.348Z,50.3
2023-02-05T20:06:32.002Z,50.2
2023-02-05T20:12:10.918Z,50.1
2023-02-05T20:17:48.787Z,50.1
2023-02-05T20:23:41.646Z,50
2023-02-05T20:29:19.999Z,49.9
2023-02-05T20:34:58.765Z,49.9
2023-02-05T20:40:37.357Z,49.9
2023-02-05T20:46:15.771Z,49.8
2023-02-05T20:51:52.628Z,49.8
2023-02-05T20:57:30.859Z,49.7
2023-02-05T21:03:09.401Z,49.6
2023-02-05T21:08:48.849Z,49.6
2023-02-05T21:14:26.901Z,49.6
2023-02-05T21:19:34.387Z,49.5
2023-02-05T21:25:12.645Z,49.5
2023-02-05T21:30:36.897Z,49.4
2023-02-05T21:36:15.036Z,49.4
2023-02-05T21:41:49.433Z,49.4
2023-02-05T21:47:27.865Z,49.3
2023-02-05T21:52:50.189Z,49.3
2023-02-05T21:58:28.200Z,49.3
2023-02-05T22:03:51.330Z,49.2
2023-02-05T22:08:45.772Z,49.1
2023-02-05T22:14:23.346Z,49.1
2023-02-05T22:20:01.973Z,49.1
2023-02-05T22:25:40.169Z,49
2023-02-05T22:31:18.965Z,48.9
2023-02-05T22:36:42.755Z,48.9
2023-02-05T22:42:20.825Z,48.9
2023-02-05T22:47:59.073Z,48.9
2023-02-05T22:53:21.337Z,48.8
2023-02-05T22:59:02.042Z,48.8
2023-02-05T23:04:25.311Z,48.7
2023-02-05T23:09:50.911Z,48.7
2023-02-05T23:15:28.513Z,48.6
2023-02-05T23:21:06.023Z,48.6
2023-02-05T23:26:44.591Z,48.6
2023-02-05T23:32:07.907Z,48.5
2023-02-05T23:37:46.096Z,48.5
2023-02-05T23:43:24.041Z,48.4
2023-02-05T23:49:01.827Z,48.4
2023-02-05T23:54:39.471Z,48.4
